Kokomo, IN (46901)

1:11 PM EDT on August 20, 2014 (GMT -0400)
Forest Park | Change Station
CLOSE
Current Station
Personal Weather Station
Location: Kokomo, IN
Elevation: 823 ft
Nearby Weather Stations

Elev 823 ft 40.50 °N, 86.15 °W | Updated 1 second ago

Partly Cloudy
Partly Cloudy
86.2 °F
Feels Like 88 °F
N
1.3
Wind Variable Wind from SW
Gusts 2.5 mph

Today
High -- | Low -- °F
--% Chance of Precip.
Yesterday
High -- | Low -- °F
Precip. -- in
7:00 AM 8:34 PM
Waning Crescent, 20% visible
Pressure 29.96 in
Visibility 10.0 miles
Clouds Few 3700 ft
Heat Index 88 °F
Dew Point 65 °F
Humidity 49%
Rainfall 0.00 in
Snow Depth Not available.
UV 9 out of 12
Pollen 9.90 out of 12
Air Quality Not available.
Flu Activity Not available.
METAR KOKK 201655Z AUTO 25013KT 10SM FEW037 28/19 A2996 RMK AO1

More Conditions Fewer Conditions

Pressure 29.96 in
Visibility 10.0 miles
Clouds Few 3700 ft
Heat Index 88 °F
Dew Point 65 °F
Humidity 49%
Rainfall 0.00 in
Snow Depth Not available.
UV 9 out of 12
Pollen 9.90 out of 12
Air Quality Not available.
Flu Activity Not available.
METAR KOKK 201655Z AUTO 25013KT 10SM FEW037 28/19 A2996 RMK AO1

More Conditions Fewer Conditions

10-Day Weather Forecast

Almanac

Astronomy

Aug. 20, 2014 Rise Set
Actual Time 7:00 AM EDT 8:34 PM EDT
Civil Twilight 6:31 AM EDT 9:03 PM EDT
Nautical Twilight 5:56 AM EDT 9:38 PM EDT
Astronomical Twilight 5:19 AM EDT 10:15 PM EDT
Moon 2:39 AM EDT 5:19 PM EDT
Length of Visible Light 14h 32m
Length of Day
13h 34m
Tomorrow will be 2m 27s shorter.
Waning Crescent, 20% of the Moon is Illuminated
Today
Waning Crescent
Aug 25
New
Sep 2
First Quarter
Sep 8
Full
Sep 15
Last Quarter

Today's Extremes

State Highs State Lows

Community

WunderPhotos

Upload Photos

1,745,694 photos uploaded!

WunderBlogs® & News

By Dr. Jeff Masters
Director of Meteorology, Weather Underground
By Kari Strenfel
Meteorologist, Weather Underground
By Christopher C. Burt
Weather Historian, Weather Underground
August 20, 2014
August 20, 2014
August 20, 2014

Nearby

Snow Depth

Station Depth Elevation
No new snow has been reported.

Earthquake Activity

City Distance Mag. Time & Date
No recent earthquake activity has been reported nearby.
Minimum magnitude displayed is 2.5.

Coastal Water Temperatures

Place Temperature
No Stations Reporting

Nearby Weather Stations